sensor_id;sensor_type;location;lat;lon;timestamp;P1;durP1;ratioP1;P2;durP2;ratioP2
37905;SDS011;23739;51.448;6.674;2023-04-03T00:01:16;11.38;;;7.97;;
37905;SDS011;23739;51.448;6.674;2023-04-03T00:03:42;11.50;;;8.60;;
37905;SDS011;23739;51.448;6.674;2023-04-03T00:06:09;11.40;;;8.02;;
37905;SDS011;23739;51.448;6.674;2023-04-03T00:08:36;14.38;;;9.07;;
37905;SDS011;23739;51.448;6.674;2023-04-03T00:11:02;19.02;;;11.30;;
37905;SDS011;23739;51.448;6.674;2023-04-03T00:13:29;16.52;;;10.45;;
37905;SDS011;23739;51.448;6.674;2023-04-03T00:15:55;19.15;;;11.95;;
37905;SDS011;23739;51.448;6.674;2023-04-03T00:18:21;16.95;;;11.35;;
37905;SDS011;23739;51.448;6.674;2023-04-03T00:20:48;17.20;;;11.07;;
37905;SDS011;23739;51.448;6.674;2023-04-03T00:23:14;19.35;;;11.60;;
37905;SDS011;23739;51.448;6.674;2023-04-03T00:25:40;17.00;;;10.23;;
37905;SDS011;23739;51.448;6.674;2023-04-03T00:28:06;16.60;;;9.25;;
37905;SDS011;23739;51.448;6.674;2023-04-03T00:30:32;15.23;;;9.48;;
37905;SDS011;23739;51.448;6.674;2023-04-03T00:32:59;16.00;;;9.32;;
37905;SDS011;23739;51.448;6.674;2023-04-03T00:35:25;15.48;;;9.68;;
37905;SDS011;23739;51.448;6.674;2023-04-03T00:37:51;17.27;;;8.63;;
37905;SDS011;23739;51.448;6.674;2023-04-03T00:40:19;11.48;;;8.00;;
37905;SDS011;23739;51.448;6.674;2023-04-03T00:42:47;15.60;;;8.75;;
37905;SDS011;23739;51.448;6.674;2023-04-03T00:45:31;14.48;;;8.23;;
37905;SDS011;23739;51.448;6.674;2023-04-03T00:47:57;15.35;;;8.95;;
37905;SDS011;23739;51.448;6.674;2023-04-03T00:50:25;14.10;;;7.93;;
37905;SDS011;23739;51.448;6.674;2023-04-03T00:52:51;11.30;;;7.32;;
37905;SDS011;23739;51.448;6.674;2023-04-03T00:55:17;10.75;;;7.35;;
37905;SDS011;23739;51.448;6.674;2023-04-03T00:57:44;11.63;;;7.60;;
37905;SDS011;23739;51.448;6.674;2023-04-03T01:00:12;12.02;;;8.00;;
37905;SDS011;23739;51.448;6.674;2023-04-03T01:02:39;11.57;;;6.70;;
37905;SDS011;23739;51.448;6.674;2023-04-03T01:05:08;11.98;;;7.25;;
37905;SDS011;23739;51.448;6.674;2023-04-03T01:07:34;11.27;;;6.57;;
37905;SDS011;23739;51.448;6.674;2023-04-03T01:10:03;14.20;;;7.28;;
37905;SDS011;23739;51.448;6.674;2023-04-03T01:12:31;9.70;;;6.57;;
37905;SDS011;23739;51.448;6.674;2023-04-03T01:14:59;10.00;;;6.68;;
37905;SDS011;23739;51.448;6.674;2023-04-03T01:22:26;11.55;;;5.93;;
37905;SDS011;23739;51.448;6.674;2023-04-03T01:27:22;9.15;;;5.55;;
37905;SDS011;23739;51.448;6.674;2023-04-03T01:29:48;10.40;;;5.65;;
37905;SDS011;23739;51.448;6.674;2023-04-03T01:32:14;10.02;;;5.70;;
37905;SDS011;23739;51.448;6.674;2023-04-03T01:34:40;7.95;;;5.22;;
37905;SDS011;23739;51.448;6.674;2023-04-03T01:37:06;10.00;;;5.55;;
37905;SDS011;23739;51.448;6.674;2023-04-03T01:39:32;8.63;;;5.78;;
37905;SDS011;23739;51.448;6.674;2023-04-03T01:41:58;5.90;;;4.30;;
37905;SDS011;23739;51.448;6.674;2023-04-03T01:44:24;7.40;;;4.78;;
37905;SDS011;23739;51.448;6.674;2023-04-03T01:46:51;7.15;;;4.28;;
37905;SDS011;23739;51.448;6.674;2023-04-03T01:49:17;8.30;;;4.90;;
37905;SDS011;23739;51.448;6.674;2023-04-03T01:51:43;8.27;;;4.13;;
37905;SDS011;23739;51.448;6.674;2023-04-03T01:54:09;5.50;;;4.35;;
37905;SDS011;23739;51.448;6.674;2023-04-03T01:56:35;6.05;;;3.75;;
37905;SDS011;23739;51.448;6.674;2023-04-03T01:59:02;11.65;;;4.22;;
37905;SDS011;23739;51.448;6.674;2023-04-03T02:01:28;5.72;;;3.25;;
37905;SDS011;23739;51.448;6.674;2023-04-03T02:03:54;6.38;;;3.47;;
37905;SDS011;23739;51.448;6.674;2023-04-03T02:06:20;4.38;;;3.03;;
37905;SDS011;23739;51.448;6.674;2023-04-03T02:08:46;6.45;;;3.72;;
37905;SDS011;23739;51.448;6.674;2023-04-03T02:11:12;6.97;;;3.22;;
37905;SDS011;23739;51.448;6.674;2023-04-03T02:13:38;5.55;;;3.33;;
37905;SDS011;23739;51.448;6.674;2023-04-03T02:16:10;6.57;;;2.90;;
37905;SDS011;23739;51.448;6.674;2023-04-03T02:18:38;6.57;;;3.30;;
37905;SDS011;23739;51.448;6.674;2023-04-03T02:21:04;5.68;;;2.67;;
37905;SDS011;23739;51.448;6.674;2023-04-03T02:23:30;9.48;;;2.92;;
37905;SDS011;23739;51.448;6.674;2023-04-03T02:26:06;5.97;;;2.65;;
37905;SDS011;23739;51.448;6.674;2023-04-03T02:28:33;6.80;;;3.63;;
37905;SDS011;23739;51.448;6.674;2023-04-03T02:30:59;3.88;;;2.65;;
37905;SDS011;23739;51.448;6.674;2023-04-03T02:33:25;4.38;;;2.53;;
37905;SDS011;23739;51.448;6.674;2023-04-03T02:35:54;5.30;;;2.33;;
37905;SDS011;23739;51.448;6.674;2023-04-03T02:38:21;6.95;;;2.70;;
37905;SDS011;23739;51.448;6.674;2023-04-03T02:40:47;5.95;;;3.05;;
37905;SDS011;23739;51.448;6.674;2023-04-03T02:43:13;7.18;;;2.58;;
37905;SDS011;23739;51.448;6.674;2023-04-03T02:45:40;4.70;;;2.28;;
37905;SDS011;23739;51.448;6.674;2023-04-03T02:48:06;5.43;;;2.20;;
37905;SDS011;23739;51.448;6.674;2023-04-03T02:50:32;4.30;;;2.70;;
37905;SDS011;23739;51.448;6.674;2023-04-03T02:52:58;4.47;;;1.83;;
37905;SDS011;23739;51.448;6.674;2023-04-03T02:55:24;6.03;;;2.33;;
37905;SDS011;23739;51.448;6.674;2023-04-03T02:57:51;3.60;;;2.00;;
37905;SDS011;23739;51.448;6.674;2023-04-03T03:00:17;5.68;;;2.60;;
37905;SDS011;23739;51.448;6.674;2023-04-03T03:02:43;7.00;;;3.30;;
37905;SDS011;23739;51.448;6.674;2023-04-03T03:05:09;6.72;;;2.05;;
37905;SDS011;23739;51.448;6.674;2023-04-03T03:07:35;5.07;;;2.03;;
37905;SDS011;23739;51.448;6.674;2023-04-03T03:10:01;4.35;;;2.17;;
37905;SDS011;23739;51.448;6.674;2023-04-03T03:12:27;5.47;;;2.05;;
37905;SDS011;23739;51.448;6.674;2023-04-03T03:14:53;3.75;;;2.22;;
37905;SDS011;23739;51.448;6.674;2023-04-03T03:17:19;4.18;;;2.00;;
37905;SDS011;23739;51.448;6.674;2023-04-03T03:19:45;5.50;;;1.95;;
37905;SDS011;23739;51.448;6.674;2023-04-03T03:22:12;5.15;;;2.17;;
37905;SDS011;23739;51.448;6.674;2023-04-03T03:24:38;7.00;;;2.00;;
37905;SDS011;23739;51.448;6.674;2023-04-03T03:27:04;2.35;;;1.83;;
37905;SDS011;23739;51.448;6.674;2023-04-03T03:29:30;6.82;;;2.00;;
37905;SDS011;23739;51.448;6.674;2023-04-03T03:31:56;3.58;;;2.00;;
37905;SDS011;23739;51.448;6.674;2023-04-03T03:34:22;7.30;;;2.28;;
37905;SDS011;23739;51.448;6.674;2023-04-03T03:36:48;6.68;;;2.83;;
37905;SDS011;23739;51.448;6.674;2023-04-03T03:39:14;6.50;;;1.75;;
37905;SDS011;23739;51.448;6.674;2023-04-03T03:41:41;2.63;;;1.83;;
37905;SDS011;23739;51.448;6.674;2023-04-03T03:44:07;7.10;;;2.60;;
37905;SDS011;23739;51.448;6.674;2023-04-03T03:46:33;4.18;;;1.55;;
37905;SDS011;23739;51.448;6.674;2023-04-03T03:48:59;8.23;;;1.55;;
37905;SDS011;23739;51.448;6.674;2023-04-03T03:51:25;4.78;;;1.40;;
37905;SDS011;23739;51.448;6.674;2023-04-03T03:53:51;6.85;;;2.03;;
37905;SDS011;23739;51.448;6.674;2023-04-03T03:56:17;4.97;;;1.65;;
37905;SDS011;23739;51.448;6.674;2023-04-03T03:58:43;4.45;;;2.08;;
37905;SDS011;23739;51.448;6.674;2023-04-03T04:01:09;2.78;;;2.00;;
37905;SDS011;23739;51.448;6.674;2023-04-03T04:03:36;5.28;;;1.80;;
37905;SDS011;23739;51.448;6.674;2023-04-03T04:06:02;3.50;;;1.55;;
37905;SDS011;23739;51.448;6.674;2023-04-03T04:08:28;7.57;;;2.10;;
37905;SDS011;23739;51.448;6.674;2023-04-03T04:10:54;6.10;;;1.80;;
37905;SDS011;23739;51.448;6.674;2023-04-03T04:13:20;5.38;;;2.55;;
37905;SDS011;23739;51.448;6.674;2023-04-03T04:15:46;7.45;;;2.67;;
37905;SDS011;23739;51.448;6.674;2023-04-03T04:18:12;7.07;;;1.75;;
37905;SDS011;23739;51.448;6.674;2023-04-03T04:20:39;5.72;;;2.55;;
37905;SDS011;23739;51.448;6.674;2023-04-03T04:23:05;4.60;;;2.10;;
37905;SDS011;23739;51.448;6.674;2023-04-03T04:25:31;3.30;;;1.55;;
37905;SDS011;23739;51.448;6.674;2023-04-03T04:27:58;8.48;;;1.77;;
37905;SDS011;23739;51.448;6.674;2023-04-03T04:30:24;9.63;;;2.00;;
37905;SDS011;23739;51.448;6.674;2023-04-03T04:32:51;5.70;;;2.47;;
37905;SDS011;23739;51.448;6.674;2023-04-03T04:35:17;6.18;;;1.73;;
37905;SDS011;23739;51.448;6.674;2023-04-03T04:37:43;4.78;;;1.45;;
37905;SDS011;23739;51.448;6.674;2023-04-03T04:40:09;6.07;;;2.13;;
37905;SDS011;23739;51.448;6.674;2023-04-03T04:42:35;8.38;;;1.92;;
37905;SDS011;23739;51.448;6.674;2023-04-03T04:45:01;4.03;;;1.45;;
37905;SDS011;23739;51.448;6.674;2023-04-03T04:47:28;2.85;;;1.80;;
37905;SDS011;23739;51.448;6.674;2023-04-03T04:49:54;4.72;;;1.55;;
37905;SDS011;23739;51.448;6.674;2023-04-03T04:52:20;4.30;;;1.40;;
37905;SDS011;23739;51.448;6.674;2023-04-03T04:54:46;7.55;;;1.63;;
37905;SDS011;23739;51.448;6.674;2023-04-03T04:57:12;5.45;;;1.80;;
37905;SDS011;23739;51.448;6.674;2023-04-03T04:59:38;9.30;;;2.42;;
37905;SDS011;23739;51.448;6.674;2023-04-03T05:02:05;5.85;;;2.08;;
37905;SDS011;23739;51.448;6.674;2023-04-03T05:04:31;6.18;;;2.03;;
37905;SDS011;23739;51.448;6.674;2023-04-03T05:06:58;2.95;;;1.58;;
37905;SDS011;23739;51.448;6.674;2023-04-03T05:09:24;4.20;;;1.65;;
37905;SDS011;23739;51.448;6.674;2023-04-03T05:11:50;4.15;;;1.77;;
37905;SDS011;23739;51.448;6.674;2023-04-03T05:14:17;6.85;;;1.95;;
37905;SDS011;23739;51.448;6.674;2023-04-03T05:16:43;5.18;;;2.00;;
37905;SDS011;23739;51.448;6.674;2023-04-03T05:19:09;2.75;;;1.67;;
37905;SDS011;23739;51.448;6.674;2023-04-03T05:21:35;6.65;;;1.73;;
37905;SDS011;23739;51.448;6.674;2023-04-03T05:24:01;10.25;;;2.58;;
37905;SDS011;23739;51.448;6.674;2023-04-03T05:26:31;9.93;;;2.10;;
37905;SDS011;23739;51.448;6.674;2023-04-03T05:28:57;4.97;;;2.03;;
37905;SDS011;23739;51.448;6.674;2023-04-03T05:31:23;5.15;;;1.80;;
37905;SDS011;23739;51.448;6.674;2023-04-03T05:33:49;5.32;;;2.33;;
37905;SDS011;23739;51.448;6.674;2023-04-03T05:36:15;7.15;;;2.30;;
37905;SDS011;23739;51.448;6.674;2023-04-03T05:38:41;3.92;;;1.80;;
37905;SDS011;23739;51.448;6.674;2023-04-03T05:41:07;4.55;;;2.33;;
37905;SDS011;23739;51.448;6.674;2023-04-03T05:43:33;4.38;;;2.40;;
37905;SDS011;23739;51.448;6.674;2023-04-03T05:46:02;6.95;;;2.50;;
37905;SDS011;23739;51.448;6.674;2023-04-03T05:48:29;5.30;;;2.13;;
37905;SDS011;23739;51.448;6.674;2023-04-03T05:50:55;7.65;;;1.98;;
37905;SDS011;23739;51.448;6.674;2023-04-03T05:53:22;2.20;;;1.33;;
37905;SDS011;23739;51.448;6.674;2023-04-03T05:55:49;6.25;;;2.20;;
37905;SDS011;23739;51.448;6.674;2023-04-03T05:58:15;6.15;;;2.28;;
37905;SDS011;23739;51.448;6.674;2023-04-03T06:00:41;8.00;;;2.20;;
37905;SDS011;23739;51.448;6.674;2023-04-03T06:03:07;5.10;;;1.90;;
37905;SDS011;23739;51.448;6.674;2023-04-03T06:05:34;4.50;;;2.00;;
37905;SDS011;23739;51.448;6.674;2023-04-03T06:08:01;4.35;;;2.00;;
37905;SDS011;23739;51.448;6.674;2023-04-03T06:10:28;7.88;;;2.85;;
37905;SDS011;23739;51.448;6.674;2023-04-03T06:12:54;3.25;;;1.40;;
37905;SDS011;23739;51.448;6.674;2023-04-03T06:15:20;11.65;;;2.58;;
37905;SDS011;23739;51.448;6.674;2023-04-03T06:17:47;5.50;;;1.88;;
37905;SDS011;23739;51.448;6.674;2023-04-03T06:20:13;7.30;;;2.22;;
37905;SDS011;23739;51.448;6.674;2023-04-03T06:22:39;10.18;;;1.90;;
37905;SDS011;23739;51.448;6.674;2023-04-03T06:25:06;8.45;;;2.50;;
37905;SDS011;23739;51.448;6.674;2023-04-03T06:27:34;8.38;;;2.47;;
37905;SDS011;23739;51.448;6.674;2023-04-03T06:30:00;5.18;;;2.35;;
37905;SDS011;23739;51.448;6.674;2023-04-03T06:32:26;3.63;;;1.63;;
37905;SDS011;23739;51.448;6.674;2023-04-03T06:34:52;8.68;;;2.08;;
37905;SDS011;23739;51.448;6.674;2023-04-03T06:37:20;6.30;;;2.22;;
37905;SDS011;23739;51.448;6.674;2023-04-03T06:39:46;11.98;;;3.38;;
37905;SDS011;23739;51.448;6.674;2023-04-03T06:42:12;27.33;;;10.48;;
37905;SDS011;23739;51.448;6.674;2023-04-03T06:44:38;8.27;;;3.53;;
37905;SDS011;23739;51.448;6.674;2023-04-03T06:47:05;9.90;;;4.30;;
37905;SDS011;23739;51.448;6.674;2023-04-03T06:49:31;6.88;;;3.17;;
37905;SDS011;23739;51.448;6.674;2023-04-03T06:51:57;12.60;;;5.85;;
37905;SDS011;23739;51.448;6.674;2023-04-03T06:54:23;8.02;;;2.70;;
37905;SDS011;23739;51.448;6.674;2023-04-03T06:56:50;10.65;;;3.25;;
37905;SDS011;23739;51.448;6.674;2023-04-03T06:59:16;11.57;;;3.33;;
37905;SDS011;23739;51.448;6.674;2023-04-03T07:01:43;11.15;;;3.63;;
37905;SDS011;23739;51.448;6.674;2023-04-03T07:04:09;5.18;;;3.22;;
37905;SDS011;23739;51.448;6.674;2023-04-03T07:06:35;7.78;;;2.88;;
37905;SDS011;23739;51.448;6.674;2023-04-03T07:09:01;7.72;;;3.42;;
37905;SDS011;23739;51.448;6.674;2023-04-03T07:11:28;6.18;;;2.67;;
37905;SDS011;23739;51.448;6.674;2023-04-03T07:13:54;10.13;;;3.72;;
37905;SDS011;23739;51.448;6.674;2023-04-03T07:16:21;8.55;;;2.97;;
37905;SDS011;23739;51.448;6.674;2023-04-03T07:18:47;8.70;;;2.50;;
37905;SDS011;23739;51.448;6.674;2023-04-03T07:21:13;5.32;;;1.92;;
37905;SDS011;23739;51.448;6.674;2023-04-03T07:23:40;5.90;;;1.63;;
37905;SDS011;23739;51.448;6.674;2023-04-03T07:26:06;5.00;;;2.63;;
37905;SDS011;23739;51.448;6.674;2023-04-03T07:28:33;7.45;;;2.85;;
37905;SDS011;23739;51.448;6.674;2023-04-03T07:31:03;5.93;;;2.65;;
37905;SDS011;23739;51.448;6.674;2023-04-03T07:33:31;4.82;;;2.45;;
37905;SDS011;23739;51.448;6.674;2023-04-03T07:35:57;6.35;;;2.13;;
37905;SDS011;23739;51.448;6.674;2023-04-03T07:38:24;10.00;;;2.85;;
37905;SDS011;23739;51.448;6.674;2023-04-03T07:40:50;6.47;;;2.03;;
37905;SDS011;23739;51.448;6.674;2023-04-03T07:43:18;7.25;;;2.28;;
37905;SDS011;23739;51.448;6.674;2023-04-03T07:45:45;10.35;;;2.45;;
37905;SDS011;23739;51.448;6.674;2023-04-03T07:48:14;7.03;;;2.10;;
37905;SDS011;23739;51.448;6.674;2023-04-03T07:50:40;6.22;;;2.47;;
37905;SDS011;23739;51.448;6.674;2023-04-03T07:53:07;7.15;;;2.33;;
37905;SDS011;23739;51.448;6.674;2023-04-03T07:55:33;3.75;;;1.65;;
37905;SDS011;23739;51.448;6.674;2023-04-03T07:57:59;4.85;;;1.90;;
37905;SDS011;23739;51.448;6.674;2023-04-03T08:00:25;6.43;;;2.08;;
37905;SDS011;23739;51.448;6.674;2023-04-03T08:02:52;4.22;;;2.13;;
37905;SDS011;23739;51.448;6.674;2023-04-03T08:05:18;6.60;;;2.53;;
37905;SDS011;23739;51.448;6.674;2023-04-03T08:07:44;3.75;;;1.73;;
37905;SDS011;23739;51.448;6.674;2023-04-03T08:10:11;3.78;;;1.88;;
37905;SDS011;23739;51.448;6.674;2023-04-03T08:12:37;5.72;;;2.03;;
37905;SDS011;23739;51.448;6.674;2023-04-03T08:15:03;4.43;;;1.65;;
37905;SDS011;23739;51.448;6.674;2023-04-03T08:17:30;6.63;;;2.00;;
37905;SDS011;23739;51.448;6.674;2023-04-03T08:19:56;9.02;;;1.60;;
37905;SDS011;23739;51.448;6.674;2023-04-03T08:22:22;5.88;;;2.03;;
37905;SDS011;23739;51.448;6.674;2023-04-03T08:24:49;1.92;;;0.82;;
37905;SDS011;23739;51.448;6.674;2023-04-03T08:27:15;3.85;;;1.40;;
37905;SDS011;23739;51.448;6.674;2023-04-03T08:29:41;3.92;;;1.52;;
37905;SDS011;23739;51.448;6.674;2023-04-03T08:32:07;4.25;;;2.03;;
37905;SDS011;23739;51.448;6.674;2023-04-03T08:34:33;5.43;;;1.60;;
37905;SDS011;23739;51.448;6.674;2023-04-03T08:37:01;6.25;;;1.60;;
37905;SDS011;23739;51.448;6.674;2023-04-03T08:39:28;5.32;;;1.38;;
37905;SDS011;23739;51.448;6.674;2023-04-03T08:41:55;4.78;;;1.50;;
37905;SDS011;23739;51.448;6.674;2023-04-03T08:46:55;4.57;;;1.40;;
37905;SDS011;23739;51.448;6.674;2023-04-03T08:49:33;3.20;;;1.52;;
37905;SDS011;23739;51.448;6.674;2023-04-03T08:52:01;4.03;;;1.40;;
37905;SDS011;23739;51.448;6.674;2023-04-03T08:54:33;2.10;;;1.40;;
37905;SDS011;23739;51.448;6.674;2023-04-03T08:56:59;3.80;;;1.15;;
37905;SDS011;23739;51.448;6.674;2023-04-03T08:59:29;4.18;;;1.25;;
37905;SDS011;23739;51.448;6.674;2023-04-03T09:01:57;14.60;;;2.53;;
37905;SDS011;23739;51.448;6.674;2023-04-03T09:04:24;3.85;;;1.50;;
37905;SDS011;23739;51.448;6.674;2023-04-03T09:06:56;4.07;;;1.20;;
37905;SDS011;23739;51.448;6.674;2023-04-03T09:09:31;2.67;;;0.88;;
37905;SDS011;23739;51.448;6.674;2023-04-03T09:20:14;4.20;;;1.42;;
37905;SDS011;23739;51.448;6.674;2023-04-03T09:22:42;3.63;;;1.38;;
37905;SDS011;23739;51.448;6.674;2023-04-03T09:25:20;6.72;;;1.08;;
37905;SDS011;23739;51.448;6.674;2023-04-03T09:27:46;4.68;;;1.40;;
37905;SDS011;23739;51.448;6.674;2023-04-03T09:30:13;21.70;;;9.52;;
37905;SDS011;23739;51.448;6.674;2023-04-03T09:32:40;8.85;;;3.50;;
37905;SDS011;23739;51.448;6.674;2023-04-03T09:35:26;5.15;;;1.65;;
37905;SDS011;23739;51.448;6.674;2023-04-03T09:37:53;1.13;;;1.00;;
37905;SDS011;23739;51.448;6.674;2023-04-03T09:42:51;3.38;;;1.38;;
37905;SDS011;23739;51.448;6.674;2023-04-03T09:45:26;1.40;;;0.95;;
37905;SDS011;23739;51.448;6.674;2023-04-03T09:50:37;2.80;;;1.00;;
37905;SDS011;23739;51.448;6.674;2023-04-03T09:53:11;2.22;;;0.98;;
37905;SDS011;23739;51.448;6.674;2023-04-03T09:55:49;2.10;;;1.02;;
37905;SDS011;23739;51.448;6.674;2023-04-03T09:58:48;4.38;;;1.20;;
37905;SDS011;23739;51.448;6.674;2023-04-03T10:01:31;4.15;;;1.15;;
37905;SDS011;23739;51.448;6.674;2023-04-03T10:04:15;4.53;;;1.30;;
37905;SDS011;23739;51.448;6.674;2023-04-03T10:06:46;2.28;;;0.60;;
37905;SDS011;23739;51.448;6.674;2023-04-03T10:09:31;0.90;;;0.60;;
37905;SDS011;23739;51.448;6.674;2023-04-03T10:12:05;1.92;;;0.90;;
37905;SDS011;23739;51.448;6.674;2023-04-03T10:15:17;3.08;;;1.30;;
37905;SDS011;23739;51.448;6.674;2023-04-03T10:25:40;4.32;;;1.35;;
37905;SDS011;23739;51.448;6.674;2023-04-03T10:28:12;1.23;;;0.70;;
37905;SDS011;23739;51.448;6.674;2023-04-03T10:43:17;0.80;;;0.50;;
37905;SDS011;23739;51.448;6.674;2023-04-03T10:45:49;2.25;;;0.68;;
37905;SDS011;23739;51.448;6.674;2023-04-03T10:48:27;1.45;;;0.75;;
37905;SDS011;23739;51.448;6.674;2023-04-03T10:51:41;1.27;;;0.70;;
37905;SDS011;23739;51.448;6.674;2023-04-03T10:54:00;1.35;;;0.77;;
37905;SDS011;23739;51.448;6.674;2023-04-03T10:56:32;0.93;;;0.60;;
37905;SDS011;23739;51.448;6.674;2023-04-03T11:01:33;0.55;;;0.50;;
37905;SDS011;23739;51.448;6.674;2023-04-03T11:04:00;1.95;;;1.42;;
37905;SDS011;23739;51.448;6.674;2023-04-03T11:06:31;7.35;;;0.63;;
37905;SDS011;23739;51.448;6.674;2023-04-03T11:09:07;2.55;;;0.98;;
37905;SDS011;23739;51.448;6.674;2023-04-03T11:11:38;1.60;;;0.70;;
37905;SDS011;23739;51.448;6.674;2023-04-03T11:16:36;2.80;;;1.33;;
37905;SDS011;23739;51.448;6.674;2023-04-03T11:19:08;3.92;;;1.35;;
37905;SDS011;23739;51.448;6.674;2023-04-03T11:21:37;4.43;;;0.98;;
37905;SDS011;23739;51.448;6.674;2023-04-03T11:24:06;2.83;;;0.65;;
37905;SDS011;23739;51.448;6.674;2023-04-03T11:26:36;3.78;;;1.13;;
37905;SDS011;23739;51.448;6.674;2023-04-03T11:29:06;3.10;;;1.10;;
37905;SDS011;23739;51.448;6.674;2023-04-03T11:34:15;4.65;;;1.67;;
37905;SDS011;23739;51.448;6.674;2023-04-03T11:36:48;4.80;;;1.88;;
37905;SDS011;23739;51.448;6.674;2023-04-03T11:39:22;4.55;;;1.20;;
37905;SDS011;23739;51.448;6.674;2023-04-03T11:41:48;3.72;;;0.90;;
37905;SDS011;23739;51.448;6.674;2023-04-03T11:44:33;1.83;;;1.05;;
37905;SDS011;23739;51.448;6.674;2023-04-03T11:46:59;2.90;;;1.35;;
37905;SDS011;23739;51.448;6.674;2023-04-03T11:52:10;3.83;;;1.00;;
37905;SDS011;23739;51.448;6.674;2023-04-03T12:02:35;3.40;;;1.15;;
37905;SDS011;23739;51.448;6.674;2023-04-03T12:10:32;2.58;;;1.00;;
37905;SDS011;23739;51.448;6.674;2023-04-03T12:12:59;2.17;;;0.77;;
37905;SDS011;23739;51.448;6.674;2023-04-03T12:23:27;4.10;;;1.17;;
37905;SDS011;23739;51.448;6.674;2023-04-03T12:25:59;4.65;;;1.05;;
37905;SDS011;23739;51.448;6.674;2023-04-03T12:28:28;2.45;;;1.15;;
37905;SDS011;23739;51.448;6.674;2023-04-03T12:30:54;3.88;;;0.85;;
37905;SDS011;23739;51.448;6.674;2023-04-03T12:33:33;1.52;;;1.10;;
37905;SDS011;23739;51.448;6.674;2023-04-03T12:36:07;1.98;;;0.63;;
37905;SDS011;23739;51.448;6.674;2023-04-03T12:46:37;2.38;;;0.82;;
37905;SDS011;23739;51.448;6.674;2023-04-03T12:49:12;4.90;;;1.40;;
37905;SDS011;23739;51.448;6.674;2023-04-03T12:51:41;2.72;;;1.00;;
37905;SDS011;23739;51.448;6.674;2023-04-03T12:57:27;1.90;;;1.27;;
37905;SDS011;23739;51.448;6.674;2023-04-03T12:59:54;4.47;;;1.40;;
37905;SDS011;23739;51.448;6.674;2023-04-03T13:02:22;4.18;;;0.95;;
37905;SDS011;23739;51.448;6.674;2023-04-03T13:04:49;1.77;;;0.90;;
37905;SDS011;23739;51.448;6.674;2023-04-03T13:07:35;2.78;;;1.10;;
37905;SDS011;23739;51.448;6.674;2023-04-03T13:10:13;2.30;;;1.25;;
37905;SDS011;23739;51.448;6.674;2023-04-03T13:12:48;2.50;;;0.82;;
37905;SDS011;23739;51.448;6.674;2023-04-03T13:15:22;4.55;;;0.98;;
37905;SDS011;23739;51.448;6.674;2023-04-03T13:17:48;2.70;;;0.98;;
37905;SDS011;23739;51.448;6.674;2023-04-03T13:20:18;3.28;;;1.67;;
37905;SDS011;23739;51.448;6.674;2023-04-03T13:22:47;2.75;;;0.80;;
37905;SDS011;23739;51.448;6.674;2023-04-03T13:25:16;2.47;;;1.00;;
37905;SDS011;23739;51.448;6.674;2023-04-03T13:27:42;1.35;;;0.77;;
37905;SDS011;23739;51.448;6.674;2023-04-03T13:36:07;3.88;;;1.10;;
37905;SDS011;23739;51.448;6.674;2023-04-03T13:38:34;1.35;;;0.80;;
37905;SDS011;23739;51.448;6.674;2023-04-03T13:41:03;2.58;;;1.00;;
37905;SDS011;23739;51.448;6.674;2023-04-03T13:43:31;2.47;;;1.13;;
37905;SDS011;23739;51.448;6.674;2023-04-03T13:48:40;3.38;;;1.55;;
37905;SDS011;23739;51.448;6.674;2023-04-03T13:51:28;1.70;;;1.17;;
37905;SDS011;23739;51.448;6.674;2023-04-03T13:53:55;1.85;;;1.23;;
37905;SDS011;23739;51.448;6.674;2023-04-03T13:56:27;1.58;;;1.02;;
37905;SDS011;23739;51.448;6.674;2023-04-03T13:58:57;2.78;;;0.88;;
37905;SDS011;23739;51.448;6.674;2023-04-03T14:01:24;2.65;;;1.10;;
37905;SDS011;23739;51.448;6.674;2023-04-03T14:06:19;1.95;;;0.88;;
37905;SDS011;23739;51.448;6.674;2023-04-03T14:08:46;2.33;;;0.88;;
37905;SDS011;23739;51.448;6.674;2023-04-03T14:11:15;2.97;;;1.25;;
37905;SDS011;23739;51.448;6.674;2023-04-03T14:13:42;2.13;;;0.75;;
37905;SDS011;23739;51.448;6.674;2023-04-03T14:16:12;1.17;;;0.90;;
37905;SDS011;23739;51.448;6.674;2023-04-03T14:18:38;4.43;;;1.40;;
37905;SDS011;23739;51.448;6.674;2023-04-03T14:21:04;3.28;;;1.42;;
37905;SDS011;23739;51.448;6.674;2023-04-03T14:23:31;3.00;;;1.45;;
37905;SDS011;23739;51.448;6.674;2023-04-03T14:25:58;1.17;;;0.80;;
37905;SDS011;23739;51.448;6.674;2023-04-03T14:28:25;3.88;;;1.10;;
37905;SDS011;23739;51.448;6.674;2023-04-03T14:30:51;2.80;;;1.10;;
37905;SDS011;23739;51.448;6.674;2023-04-03T14:33:19;1.80;;;0.90;;
37905;SDS011;23739;51.448;6.674;2023-04-03T14:35:46;1.38;;;0.85;;
37905;SDS011;23739;51.448;6.674;2023-04-03T14:38:16;4.28;;;1.58;;
37905;SDS011;23739;51.448;6.674;2023-04-03T14:40:46;2.20;;;0.80;;
37905;SDS011;23739;51.448;6.674;2023-04-03T14:43:12;7.40;;;1.73;;
37905;SDS011;23739;51.448;6.674;2023-04-03T14:45:38;2.95;;;1.42;;
37905;SDS011;23739;51.448;6.674;2023-04-03T14:48:06;2.85;;;1.20;;
37905;SDS011;23739;51.448;6.674;2023-04-03T14:50:35;3.78;;;1.45;;
37905;SDS011;23739;51.448;6.674;2023-04-03T14:53:01;7.65;;;1.33;;
37905;SDS011;23739;51.448;6.674;2023-04-03T14:55:27;2.58;;;1.10;;
37905;SDS011;23739;51.448;6.674;2023-04-03T14:57:54;1.98;;;1.23;;
37905;SDS011;23739;51.448;6.674;2023-04-03T15:00:21;2.50;;;1.20;;
37905;SDS011;23739;51.448;6.674;2023-04-03T15:02:47;2.78;;;1.00;;
37905;SDS011;23739;51.448;6.674;2023-04-03T15:05:14;6.55;;;1.13;;
37905;SDS011;23739;51.448;6.674;2023-04-03T15:12:41;1.70;;;1.10;;
37905;SDS011;23739;51.448;6.674;2023-04-03T15:15:08;2.60;;;1.23;;
37905;SDS011;23739;51.448;6.674;2023-04-03T15:17:34;3.83;;;1.17;;
37905;SDS011;23739;51.448;6.674;2023-04-03T15:22:59;1.95;;;1.00;;
37905;SDS011;23739;51.448;6.674;2023-04-03T15:25:26;3.67;;;1.48;;
37905;SDS011;23739;51.448;6.674;2023-04-03T15:27:55;2.05;;;1.30;;
37905;SDS011;23739;51.448;6.674;2023-04-03T15:30:22;4.07;;;1.23;;
37905;SDS011;23739;51.448;6.674;2023-04-03T15:32:48;0.98;;;0.80;;
37905;SDS011;23739;51.448;6.674;2023-04-03T15:35:14;2.53;;;0.90;;
37905;SDS011;23739;51.448;6.674;2023-04-03T15:37:40;2.42;;;0.80;;
37905;SDS011;23739;51.448;6.674;2023-04-03T15:40:07;2.55;;;1.00;;
37905;SDS011;23739;51.448;6.674;2023-04-03T15:42:33;3.45;;;1.50;;
37905;SDS011;23739;51.448;6.674;2023-04-03T15:44:59;5.78;;;2.47;;
37905;SDS011;23739;51.448;6.674;2023-04-03T15:47:26;2.30;;;0.77;;
37905;SDS011;23739;51.448;6.674;2023-04-03T15:49:52;2.90;;;1.30;;
37905;SDS011;23739;51.448;6.674;2023-04-03T15:52:19;4.57;;;1.13;;
37905;SDS011;23739;51.448;6.674;2023-04-03T15:54:45;3.33;;;1.33;;
37905;SDS011;23739;51.448;6.674;2023-04-03T15:57:11;2.72;;;1.80;;
37905;SDS011;23739;51.448;6.674;2023-04-03T15:59:37;2.42;;;1.17;;
37905;SDS011;23739;51.448;6.674;2023-04-03T16:02:04;3.40;;;1.63;;
37905;SDS011;23739;51.448;6.674;2023-04-03T16:04:31;6.13;;;1.85;;
37905;SDS011;23739;51.448;6.674;2023-04-03T16:07:01;3.17;;;1.20;;
37905;SDS011;23739;51.448;6.674;2023-04-03T16:09:27;1.80;;;1.02;;
37905;SDS011;23739;51.448;6.674;2023-04-03T16:11:53;3.63;;;1.20;;
37905;SDS011;23739;51.448;6.674;2023-04-03T16:14:20;3.63;;;1.25;;
37905;SDS011;23739;51.448;6.674;2023-04-03T16:16:46;4.00;;;1.25;;
37905;SDS011;23739;51.448;6.674;2023-04-03T16:19:12;3.90;;;1.10;;
37905;SDS011;23739;51.448;6.674;2023-04-03T16:21:38;5.10;;;1.27;;
37905;SDS011;23739;51.448;6.674;2023-04-03T16:24:05;2.08;;;1.15;;
37905;SDS011;23739;51.448;6.674;2023-04-03T16:26:31;5.20;;;1.30;;
37905;SDS011;23739;51.448;6.674;2023-04-03T16:28:57;2.30;;;0.85;;
37905;SDS011;23739;51.448;6.674;2023-04-03T16:31:24;3.45;;;1.52;;
37905;SDS011;23739;51.448;6.674;2023-04-03T16:33:51;4.13;;;1.40;;
37905;SDS011;23739;51.448;6.674;2023-04-03T16:36:17;6.20;;;2.35;;